Time;durP1;ratioP1;P1;durP2;ratioP2;P2;SDS_P1;SDS_P2;PMS_P1;PMS_P2;Temp;Humidity;BMP_temperature;BMP_pressure;BME280_temperature;BME280_humidity;BME280_pressure;Samples;Min_cycle;Max_cycle;Signal;HPM_P1;HPM_P2
2023/08/03 00:02:06;;;;;;;;;;;19.30;75.10;;;;;;5109450;28;20011;-64
2023/08/03 00:04:31;;;;;;;;;;;19.30;75.10;;;;;;5108429;28;19988;-64
2023/08/03 00:06:57;;;;;;;;;;;19.20;75.10;;;;;;5108525;28;19978;-64
2023/08/03 00:09:23;;;;;;;;;;;19.30;75.10;;;;;;5108042;28;19939;-64
2023/08/03 00:11:48;;;;;;;;;;;19.20;75.10;;;;;;5108187;28;20298;-64
2023/08/03 00:14:14;;;;;;;;;;;19.30;75.10;;;;;;5108057;28;19928;-65
2023/08/03 00:16:39;;;;;;;;;;;19.20;75.10;;;;;;5108159;28;19980;-64
2023/08/03 00:19:05;;;;;;;;;;;19.30;75.10;;;;;;5107988;28;20409;-64
2023/08/03 00:21:30;;;;;;;;;;;19.30;75.10;;;;;;5116226;28;19924;-64
2023/08/03 00:23:55;;;;;;;;;;;19.30;75.10;;;;;;5111450;28;19988;-64
2023/08/03 00:26:21;;;;;;;;;;;19.30;75.10;;;;;;5111067;28;19923;-64
2023/08/03 00:28:46;;;;;;;;;;;19.30;75.10;;;;;;5145476;27;19973;-64
2023/08/03 00:31:12;;;;;;;;;;;19.30;75.10;;;;;;5111354;28;20278;-64
2023/08/03 00:33:37;;;;;;;;;;;19.30;75.10;;;;;;5101297;28;19927;-63
2023/08/03 00:36:03;;;;;;;;;;;19.20;75.10;;;;;;5097699;28;20267;-64
2023/08/03 00:38:28;;;;;;;;;;;19.30;75.20;;;;;;5115741;28;20014;-64
2023/08/03 00:40:54;;;;;;;;;;;19.20;75.10;;;;;;5115415;28;20423;-64
2023/08/03 00:43:19;;;;;;;;;;;19.30;75.10;;;;;;5115537;28;19919;-64
2023/08/03 00:45:45;;;;;;;;;;;19.20;75.10;;;;;;5097197;28;19920;-64
2023/08/03 00:48:10;;;;;;;;;;;19.20;75.10;;;;;;5097542;28;19920;-65
2023/08/03 00:50:36;;;;;;;;;;;19.30;75.20;;;;;;5097421;28;20001;-65
2023/08/03 00:53:02;;;;;;;;;;;19.20;75.20;;;;;;5115330;28;20406;-65
2023/08/03 00:55:27;;;;;;;;;;;19.20;75.20;;;;;;5097394;28;20327;-65
2023/08/03 00:57:53;;;;;;;;;;;19.20;75.20;;;;;;5097245;28;19926;-65
2023/08/03 01:00:18;;;;;;;;;;;19.20;75.20;;;;;;5096965;28;20366;-65
2023/08/03 01:02:44;;;;;;;;;;;19.20;75.20;;;;;;5096785;28;19923;-65
2023/08/03 01:05:09;;;;;;;;;;;19.20;75.20;;;;;;5097123;28;20006;-65
2023/08/03 01:07:35;;;;;;;;;;;19.20;75.30;;;;;;5115031;28;19927;-64
2023/08/03 01:10:01;;;;;;;;;;;19.20;75.30;;;;;;5115060;28;19972;-65
2023/08/03 01:12:26;;;;;;;;;;;19.20;75.30;;;;;;5096872;28;20278;-64
2023/08/03 01:14:52;;;;;;;;;;;19.20;75.30;;;;;;5096730;28;19930;-64
2023/08/03 01:17:18;;;;;;;;;;;19.20;75.30;;;;;;5096916;28;20001;-65
2023/08/03 01:19:44;;;;;;;;;;;19.20;75.30;;;;;;5096539;28;19920;-65
2023/08/03 01:22:10;;;;;;;;;;;19.20;75.30;;;;;;5096269;28;19954;-65
2023/08/03 01:24:35;;;;;;;;;;;19.20;75.30;;;;;;5114781;28;19920;-65
2023/08/03 01:27:01;;;;;;;;;;;19.20;75.30;;;;;;5114584;28;20293;-65
2023/08/03 01:29:27;;;;;;;;;;;19.20;75.30;;;;;;5096434;28;19920;-65
2023/08/03 01:31:56;;;;;;;;;;;19.20;75.30;;;;;;5096366;28;19920;-65
2023/08/03 01:34:23;;;;;;;;;;;19.20;75.40;;;;;;5114762;28;20374;-65
2023/08/03 01:36:48;;;;;;;;;;;19.20;75.40;;;;;;5095983;28;20347;-65
2023/08/03 01:39:14;;;;;;;;;;;19.20;75.40;;;;;;5096513;28;20014;-65
2023/08/03 01:41:41;;;;;;;;;;;19.20;75.40;;;;;;5096050;28;19971;-65
2023/08/03 01:46:51;;;;;;;;;;;19.20;75.40;;;;;;5130889;27;19911;-65
2023/08/03 01:49:16;;;;;;;;;;;19.20;75.40;;;;;;5129693;28;19985;-65
2023/08/03 01:51:42;;;;;;;;;;;19.20;75.40;;;;;;5129646;28;20378;-65
2023/08/03 01:54:08;;;;;;;;;;;19.20;75.40;;;;;;5129563;28;19920;-65
2023/08/03 01:56:35;;;;;;;;;;;19.20;75.40;;;;;;5131073;27;19923;-65
2023/08/03 01:59:00;;;;;;;;;;;19.20;75.40;;;;;;5129489;28;20374;-65
2023/08/03 02:01:26;;;;;;;;;;;19.20;75.40;;;;;;5129162;28;19927;-65
2023/08/03 02:03:51;;;;;;;;;;;19.20;75.40;;;;;;5130424;28;19924;-65
2023/08/03 02:06:17;;;;;;;;;;;19.20;75.40;;;;;;5129092;28;20455;-65
2023/08/03 02:08:42;;;;;;;;;;;19.20;75.40;;;;;;5130331;28;20409;-65
2023/08/03 02:11:08;;;;;;;;;;;19.20;75.40;;;;;;5129364;28;20378;-65
2023/08/03 02:13:33;;;;;;;;;;;19.20;75.50;;;;;;5111807;28;20370;-65
2023/08/03 02:16:02;;;;;;;;;;;19.20;75.40;;;;;;5130448;28;19964;-65
2023/08/03 02:18:28;;;;;;;;;;;19.20;75.50;;;;;;5130250;27;19920;-65
2023/08/03 02:20:55;;;;;;;;;;;19.20;75.50;;;;;;5163544;27;19927;-65
2023/08/03 02:23:21;;;;;;;;;;;19.20;75.50;;;;;;5130113;27;19926;-65
2023/08/03 02:25:46;;;;;;;;;;;19.20;75.50;;;;;;5163378;27;19924;-65
2023/08/03 02:28:12;;;;;;;;;;;19.20;75.50;;;;;;5129030;28;19924;-66
2023/08/03 02:30:39;;;;;;;;;;;19.20;75.50;;;;;;5129912;28;19920;-65
2023/08/03 02:33:05;;;;;;;;;;;19.20;75.50;;;;;;5129020;28;19919;-65
2023/08/03 02:35:31;;;;;;;;;;;19.20;75.50;;;;;;5128650;28;19920;-65
2023/08/03 02:37:56;;;;;;;;;;;19.20;75.50;;;;;;5128627;28;19919;-65
2023/08/03 02:40:22;;;;;;;;;;;19.20;75.50;;;;;;5128752;28;20335;-65
2023/08/03 02:42:47;;;;;;;;;;;19.20;75.50;;;;;;5128747;28;20252;-66
2023/08/03 02:45:13;;;;;;;;;;;19.20;75.50;;;;;;5128056;28;20285;-65
2023/08/03 02:47:38;;;;;;;;;;;19.20;75.50;;;;;;5128393;28;19919;-65
2023/08/03 02:50:04;;;;;;;;;;;19.20;75.50;;;;;;5129630;28;19920;-65
2023/08/03 02:52:29;;;;;;;;;;;19.20;75.50;;;;;;5162981;27;19934;-65
2023/08/03 02:54:55;;;;;;;;;;;19.20;75.60;;;;;;5128455;28;19926;-65
2023/08/03 02:57:20;;;;;;;;;;;19.20;75.60;;;;;;5120880;28;20127;-65
2023/08/03 02:59:46;;;;;;;;;;;19.20;75.60;;;;;;5114711;28;19919;-64
2023/08/03 03:02:11;;;;;;;;;;;19.20;75.60;;;;;;5114261;28;19920;-64
2023/08/03 03:04:36;;;;;;;;;;;19.20;75.60;;;;;;5115572;28;19919;-64
2023/08/03 03:07:02;;;;;;;;;;;19.20;75.60;;;;;;5114245;28;19924;-64
2023/08/03 03:09:27;;;;;;;;;;;19.20;75.60;;;;;;5114571;28;19927;-65
2023/08/03 03:11:55;;;;;;;;;;;19.20;75.60;;;;;;5114510;28;20362;-65
2023/08/03 03:14:22;;;;;;;;;;;19.10;75.60;;;;;;5115540;28;19927;-65
2023/08/03 03:16:48;;;;;;;;;;;19.20;75.70;;;;;;5114090;28;19972;-65
2023/08/03 03:19:13;;;;;;;;;;;19.20;75.70;;;;;;5114100;28;19924;-72
2023/08/03 03:21:39;;;;;;;;;;;19.10;75.60;;;;;;5114057;28;19919;-64
2023/08/03 03:24:04;;;;;;;;;;;19.10;75.70;;;;;;5114321;28;19920;-65
2023/08/03 03:26:30;;;;;;;;;;;19.20;75.70;;;;;;5115131;28;19924;-65
2023/08/03 03:28:55;;;;;;;;;;;19.20;75.80;;;;;;5113891;28;20370;-65
2023/08/03 03:31:21;;;;;;;;;;;19.10;75.70;;;;;;5114086;28;20211;-66
2023/08/03 03:33:46;;;;;;;;;;;19.10;75.70;;;;;;5114173;28;19920;-65
2023/08/03 03:36:12;;;;;;;;;;;19.10;75.70;;;;;;5113973;28;19931;-65
2023/08/03 03:38:38;;;;;;;;;;;19.10;75.70;;;;;;5115176;28;19919;-65
2023/08/03 03:41:04;;;;;;;;;;;19.20;75.80;;;;;;5113965;28;19943;-65
2023/08/03 03:43:29;;;;;;;;;;;19.10;75.70;;;;;;5113436;28;19920;-65
2023/08/03 03:45:55;;;;;;;;;;;19.10;75.70;;;;;;5114537;28;19928;-65
2023/08/03 03:48:20;;;;;;;;;;;19.10;75.70;;;;;;5096786;28;19931;-64
2023/08/03 03:50:46;;;;;;;;;;;19.10;75.70;;;;;;5096470;28;19926;-65
2023/08/03 03:53:11;;;;;;;;;;;19.10;75.70;;;;;;5096661;28;19924;-65
2023/08/03 03:55:37;;;;;;;;;;;19.20;75.80;;;;;;5096689;28;20363;-65
2023/08/03 03:58:02;;;;;;;;;;;19.10;75.70;;;;;;5114622;28;20014;-65
2023/08/03 04:00:28;;;;;;;;;;;19.10;75.70;;;;;;5096244;28;19969;-66
2023/08/03 04:02:54;;;;;;;;;;;19.10;75.80;;;;;;5114416;28;19943;-65
2023/08/03 04:05:19;;;;;;;;;;;19.10;75.70;;;;;;5114569;28;19923;-65
2023/08/03 04:07:45;;;;;;;;;;;19.20;75.80;;;;;;5096080;28;19919;-70
2023/08/03 04:10:10;;;;;;;;;;;19.20;75.80;;;;;;5113520;28;19927;-65
2023/08/03 04:12:36;;;;;;;;;;;19.10;75.70;;;;;;5114192;28;19924;-65
2023/08/03 04:15:01;;;;;;;;;;;19.10;75.70;;;;;;5114290;28;19943;-65
2023/08/03 04:17:27;;;;;;;;;;;19.10;75.70;;;;;;5096285;28;19920;-65
2023/08/03 04:19:52;;;;;;;;;;;19.10;75.70;;;;;;5095910;28;19920;-66
2023/08/03 04:22:18;;;;;;;;;;;19.20;75.80;;;;;;5114294;28;19920;-66
2023/08/03 04:24:43;;;;;;;;;;;19.10;75.70;;;;;;5129838;27;19927;-65
2023/08/03 04:27:09;;;;;;;;;;;19.10;75.70;;;;;;5095785;28;19919;-65
2023/08/03 04:29:34;;;;;;;;;;;19.10;75.80;;;;;;5095961;28;19920;-65
2023/08/03 04:32:00;;;;;;;;;;;19.10;75.80;;;;;;5095866;28;19968;-66
2023/08/03 04:34:25;;;;;;;;;;;19.10;75.70;;;;;;5129744;27;19919;-66
2023/08/03 04:36:51;;;;;;;;;;;19.10;75.70;;;;;;5113894;28;19920;-65
2023/08/03 04:39:16;;;;;;;;;;;19.10;75.80;;;;;;5078926;28;19982;-66
2023/08/03 04:41:42;;;;;;;;;;;19.10;75.70;;;;;;5095520;28;19923;-66
2023/08/03 04:44:07;;;;;;;;;;;19.10;75.70;;;;;;5095716;28;19928;-66
2023/08/03 04:46:32;;;;;;;;;;;19.10;75.70;;;;;;5113306;28;19924;-65
2023/08/03 04:48:58;;;;;;;;;;;19.20;75.80;;;;;;5095826;28;19919;-65
2023/08/03 04:51:23;;;;;;;;;;;19.10;75.70;;;;;;5095364;28;20006;-65
2023/08/03 04:53:49;;;;;;;;;;;19.10;75.70;;;;;;5113576;28;19919;-66
2023/08/03 04:56:14;;;;;;;;;;;19.10;75.80;;;;;;5095734;28;20429;-65
2023/08/03 04:58:40;;;;;;;;;;;19.10;75.70;;;;;;5113533;28;20024;-65
2023/08/03 05:01:05;;;;;;;;;;;19.10;75.70;;;;;;5095066;28;19920;-65
2023/08/03 05:03:31;;;;;;;;;;;19.10;75.80;;;;;;5095352;28;19920;-66
2023/08/03 05:05:56;;;;;;;;;;;19.10;75.70;;;;;;5113372;28;19924;-66
2023/08/03 05:08:22;;;;;;;;;;;19.20;75.80;;;;;;5113279;28;19969;-65
2023/08/03 05:10:48;;;;;;;;;;;19.10;75.70;;;;;;5113409;28;19927;-66
2023/08/03 05:13:16;;;;;;;;;;;19.10;75.80;;;;;;5113251;28;19920;-65
2023/08/03 05:15:41;;;;;;;;;;;19.10;75.80;;;;;;5094937;28;19927;-66
2023/08/03 05:18:06;;;;;;;;;;;19.10;75.80;;;;;;5113045;28;19920;-66
2023/08/03 05:20:32;;;;;;;;;;;19.10;75.70;;;;;;5112877;28;19927;-66
2023/08/03 05:22:58;;;;;;;;;;;19.10;75.70;;;;;;5113060;28;19920;-65
2023/08/03 05:25:24;;;;;;;;;;;19.10;75.80;;;;;;5094826;28;19938;-65
2023/08/03 05:27:49;;;;;;;;;;;19.10;75.80;;;;;;5095038;28;19923;-65
2023/08/03 05:30:15;;;;;;;;;;;19.10;75.80;;;;;;5094879;28;19920;-66
2023/08/03 05:32:41;;;;;;;;;;;19.10;75.80;;;;;;5112906;28;19919;-66
2023/08/03 05:35:06;;;;;;;;;;;19.10;75.80;;;;;;5112821;28;20404;-65
2023/08/03 05:37:32;;;;;;;;;;;19.10;75.80;;;;;;5113019;28;19992;-66
2023/08/03 05:39:57;;;;;;;;;;;19.10;75.80;;;;;;5094862;28;19919;-65
2023/08/03 05:42:24;;;;;;;;;;;19.10;75.80;;;;;;5094444;28;19943;-65
2023/08/03 05:44:49;;;;;;;;;;;19.10;75.80;;;;;;5112497;28;19924;-65
2023/08/03 05:47:17;;;;;;;;;;;19.10;75.80;;;;;;5094499;28;19919;-66
2023/08/03 05:49:43;;;;;;;;;;;19.10;75.80;;;;;;5094816;28;19924;-65
2023/08/03 05:52:09;;;;;;;;;;;19.10;75.80;;;;;;5112675;28;19927;-65
2023/08/03 05:54:35;;;;;;;;;;;19.10;75.80;;;;;;5094422;28;20051;-65
2023/08/03 05:57:00;;;;;;;;;;;19.10;75.80;;;;;;5112695;28;20327;-65
2023/08/03 05:59:26;;;;;;;;;;;19.10;75.80;;;;;;5112689;28;20401;-65
2023/08/03 06:01:52;;;;;;;;;;;19.10;75.70;;;;;;5094401;28;19930;-65
2023/08/03 06:04:17;;;;;;;;;;;19.10;75.70;;;;;;5094694;28;20006;-65
2023/08/03 06:06:44;;;;;;;;;;;19.10;75.70;;;;;;5094242;28;20022;-66
2023/08/03 06:09:11;;;;;;;;;;;19.20;75.80;;;;;;5094778;28;20069;-65
2023/08/03 06:11:36;;;;;;;;;;;19.20;75.80;;;;;;5094328;28;19969;-65
2023/08/03 06:14:02;;;;;;;;;;;19.10;75.70;;;;;;5128489;28;19923;-66
2023/08/03 06:16:27;;;;;;;;;;;19.10;75.70;;;;;;5094542;28;19919;-66
2023/08/03 06:18:54;;;;;;;;;;;19.10;75.80;;;;;;5128661;28;19928;-65
2023/08/03 06:21:20;;;;;;;;;;;19.20;75.80;;;;;;5112471;28;19927;-66
2023/08/03 06:23:47;;;;;;;;;;;19.20;75.80;;;;;;5094160;28;20382;-66
2023/08/03 06:26:14;;;;;;;;;;;19.20;75.80;;;;;;5094289;28;19923;-65
2023/08/03 06:28:40;;;;;;;;;;;19.20;75.80;;;;;;5094525;28;19919;-65
2023/08/03 06:31:25;;;;;;;;;;;19.10;75.80;;;;;;5094113;28;19920;-65
2023/08/03 06:33:50;;;;;;;;;;;19.20;75.80;;;;;;5098068;28;19920;-65
2023/08/03 06:36:18;;;;;;;;;;;19.20;75.80;;;;;;5132120;27;19945;-65
2023/08/03 06:38:44;;;;;;;;;;;19.10;75.70;;;;;;5116132;28;20331;-65
2023/08/03 06:41:09;;;;;;;;;;;19.20;75.80;;;;;;5097802;28;19920;-65
2023/08/03 06:43:35;;;;;;;;;;;19.20;75.80;;;;;;5115947;28;19943;-65
2023/08/03 06:46:01;;;;;;;;;;;19.20;75.80;;;;;;5097672;28;19972;-66
2023/08/03 06:48:26;;;;;;;;;;;19.20;75.80;;;;;;5097512;28;19920;-66
2023/08/03 06:50:52;;;;;;;;;;;19.10;75.70;;;;;;5132222;27;19924;-66
2023/08/03 06:53:20;;;;;;;;;;;19.10;75.80;;;;;;5097914;28;19919;-65
2023/08/03 06:55:48;;;;;;;;;;;19.10;75.80;;;;;;5097830;28;19919;-65
2023/08/03 06:58:15;;;;;;;;;;;19.20;75.80;;;;;;5097404;28;20003;-66
2023/08/03 07:00:41;;;;;;;;;;;19.20;76.60;;;;;;5115598;28;19919;-66
2023/08/03 07:03:07;;;;;;;;;;;19.20;75.80;;;;;;5115622;28;19943;-65
2023/08/03 07:05:32;;;;;;;;;;;19.20;75.80;;;;;;5115496;28;20014;-66
2023/08/03 07:07:58;;;;;;;;;;;19.20;75.80;;;;;;5097539;28;20444;-66
2023/08/03 07:10:23;;;;;;;;;;;19.20;75.80;;;;;;5097518;28;20298;-66
2023/08/03 07:12:49;;;;;;;;;;;19.20;75.80;;;;;;5097556;28;19977;-66
2023/08/03 07:15:15;;;;;;;;;;;19.20;75.80;;;;;;5115449;28;20275;-66
2023/08/03 07:17:40;;;;;;;;;;;19.20;75.80;;;;;;5097102;28;19966;-66
2023/08/03 07:20:08;;;;;;;;;;;19.20;75.80;;;;;;5080616;28;20327;-66
2023/08/03 07:22:34;;;;;;;;;;;19.20;75.80;;;;;;5097192;28;19920;-65
2023/08/03 07:25:00;;;;;;;;;;;19.10;75.80;;;;;;5115122;28;19930;-65
2023/08/03 07:27:26;;;;;;;;;;;19.20;75.80;;;;;;5096091;28;19919;-67
2023/08/03 07:29:51;;;;;;;;;;;19.20;75.80;;;;;;5097089;28;20333;-65
2023/08/03 07:32:17;;;;;;;;;;;19.20;75.80;;;;;;5096222;28;19927;-66
2023/08/03 07:34:43;;;;;;;;;;;19.20;75.80;;;;;;5095301;28;20036;-66
2023/08/03 07:37:09;;;;;;;;;;;19.20;75.80;;;;;;5096057;28;19925;-66
2023/08/03 07:39:34;;;;;;;;;;;19.20;75.80;;;;;;5096176;28;19926;-67
2023/08/03 07:42:00;;;;;;;;;;;19.20;75.80;;;;;;5114290;28;19919;-67
2023/08/03 07:44:25;;;;;;;;;;;19.20;75.80;;;;;;5096413;28;19927;-66
2023/08/03 07:46:51;;;;;;;;;;;19.10;75.60;;;;;;5113061;28;19937;-66
2023/08/03 07:49:16;;;;;;;;;;;19.20;75.60;;;;;;5112144;28;20324;-66
2023/08/03 07:51:43;;;;;;;;;;;19.20;75.50;;;;;;5112227;28;20358;-66
2023/08/03 07:54:08;;;;;;;;;;;19.20;75.50;;;;;;5113999;28;20370;-67
2023/08/03 07:56:34;;;;;;;;;;;19.20;75.50;;;;;;5113687;28;19920;-67
2023/08/03 07:59:00;;;;;;;;;;;19.20;75.50;;;;;;5113443;28;19919;-66
2023/08/03 08:01:26;;;;;;;;;;;19.20;75.50;;;;;;5112743;28;19920;-67
2023/08/03 08:03:51;;;;;;;;;;;19.20;75.50;;;;;;5114072;28;20023;-66
2023/08/03 08:06:17;;;;;;;;;;;19.20;75.50;;;;;;5112104;28;19971;-66
2023/08/03 08:08:43;;;;;;;;;;;19.20;75.50;;;;;;5113964;28;19919;-66
2023/08/03 08:11:09;;;;;;;;;;;19.20;75.40;;;;;;5112680;28;19927;-67
2023/08/03 08:13:35;;;;;;;;;;;19.20;75.40;;;;;;5113525;28;20381;-66
2023/08/03 08:18:40;;;;;;;;;;;19.20;75.60;;;;;;5130219;27;19918;-66
2023/08/03 08:21:08;;;;;;;;;;;19.20;75.70;;;;;;5129482;28;20018;-66
2023/08/03 08:23:34;;;;;;;;;;;19.20;75.60;;;;;;5129496;28;19958;-69
2023/08/03 08:26:00;;;;;;;;;;;19.20;75.50;;;;;;5129396;28;20398;-66
2023/08/03 08:28:25;;;;;;;;;;;19.20;75.50;;;;;;5129338;28;19945;-66
2023/08/03 08:30:51;;;;;;;;;;;19.20;75.60;;;;;;5128976;28;20408;-66
2023/08/03 08:33:17;;;;;;;;;;;19.20;75.60;;;;;;5129299;28;19927;-65
2023/08/03 08:35:44;;;;;;;;;;;19.20;75.40;;;;;;5128750;28;19919;-66
2023/08/03 08:38:11;;;;;;;;;;;19.20;75.50;;;;;;5128783;28;19924;-65
2023/08/03 08:40:37;;;;;;;;;;;19.20;75.50;;;;;;5129111;28;19924;-66
2023/08/03 08:43:02;;;;;;;;;;;19.20;75.50;;;;;;5128706;28;19924;-65
2023/08/03 08:45:29;;;;;;;;;;;19.20;75.50;;;;;;5129277;28;19968;-71
2023/08/03 08:47:54;;;;;;;;;;;19.20;75.30;;;;;;5128971;28;19927;-69
2023/08/03 08:50:20;;;;;;;;;;;19.20;75.50;;;;;;5128542;28;20293;-66
2023/08/03 08:52:45;;;;;;;;;;;19.20;75.40;;;;;;5128820;28;20068;-69
2023/08/03 08:55:15;;;;;;;;;;;19.20;75.40;;;;;;5128831;28;19923;-66
2023/08/03 08:57:41;;;;;;;;;;;19.20;75.30;;;;;;5129679;27;19974;-66
2023/08/03 09:00:07;;;;;;;;;;;19.20;75.30;;;;;;5128738;28;19923;-65
2023/08/03 09:02:33;;;;;;;;;;;19.20;75.50;;;;;;5129384;27;20377;-65
2023/08/03 09:05:19;;;;;;;;;;;19.20;75.40;;;;;;5129619;27;19920;-65
2023/08/03 09:07:45;;;;;;;;;;;19.20;75.40;;;;;;5128481;28;19926;-65
2023/08/03 09:10:11;;;;;;;;;;;19.20;75.40;;;;;;5127802;28;20364;-65
2023/08/03 09:12:38;;;;;;;;;;;19.20;75.40;;;;;;5126932;28;20022;-65
2023/08/03 09:15:04;;;;;;;;;;;19.20;75.30;;;;;;5129765;27;19920;-66
2023/08/03 09:17:30;;;;;;;;;;;19.30;75.40;;;;;;5128036;28;19924;-66
2023/08/03 09:19:55;;;;;;;;;;;19.30;75.20;;;;;;5129820;27;19927;-65
2023/08/03 09:22:22;;;;;;;;;;;19.30;75.30;;;;;;5129541;28;20379;-65
2023/08/03 09:25:07;;;;;;;;;;;19.30;75.40;;;;;;5129741;27;20326;-65
2023/08/03 09:27:33;;;;;;;;;;;19.30;75.20;;;;;;5162978;27;19923;-66
2023/08/03 09:30:00;;;;;;;;;;;19.30;75.30;;;;;;5115704;27;19962;-66
2023/08/03 09:32:34;;;;;;;;;;;19.40;75.30;;;;;;5115950;28;19982;-65
2023/08/03 09:35:01;;;;;;;;;;;19.30;75.10;;;;;;5114677;28;19919;-65
2023/08/03 09:37:35;;;;;;;;;;;19.40;75.00;;;;;;5114417;28;20015;-65
2023/08/03 09:40:04;;;;;;;;;;;19.40;75.10;;;;;;5114242;28;19920;-65
2023/08/03 09:42:31;;;;;;;;;;;19.40;75.00;;;;;;5114547;28;20394;-65
2023/08/03 09:44:59;;;;;;;;;;;19.40;74.80;;;;;;5114116;28;19974;-65
2023/08/03 09:47:24;;;;;;;;;;;19.40;74.80;;;;;;5114559;28;20358;-65
2023/08/03 09:49:50;;;;;;;;;;;19.40;74.80;;;;;;5114098;28;19934;-66
2023/08/03 09:52:18;;;;;;;;;;;19.40;74.80;;;;;;5114496;28;19927;-65
2023/08/03 09:54:55;;;;;;;;;;;19.40;74.80;;;;;;5114114;28;19926;-66
2023/08/03 09:57:23;;;;;;;;;;;19.40;74.80;;;;;;5113933;28;20366;-65
2023/08/03 09:59:52;;;;;;;;;;;19.40;74.60;;;;;;5114229;28;20273;-65
2023/08/03 10:02:22;;;;;;;;;;;19.40;74.60;;;;;;5114136;28;20385;-65
2023/08/03 10:04:49;;;;;;;;;;;19.40;74.70;;;;;;5115091;28;19977;-65
2023/08/03 10:07:16;;;;;;;;;;;19.40;74.70;;;;;;5113796;28;19920;-65
2023/08/03 10:09:43;;;;;;;;;;;19.40;74.60;;;;;;5115093;28;20301;-65
2023/08/03 10:12:12;;;;;;;;;;;19.50;75.50;;;;;;5114949;28;19919;-65
2023/08/03 10:14:41;;;;;;;;;;;19.50;74.80;;;;;;5113966;28;19920;-65
2023/08/03 10:17:07;;;;;;;;;;;19.40;74.70;;;;;;5113255;28;19924;-65
2023/08/03 10:19:33;;;;;;;;;;;19.50;74.70;;;;;;5113482;28;19970;-65
2023/08/03 10:21:59;;;;;;;;;;;19.50;74.60;;;;;;5113760;28;19959;-65
2023/08/03 10:24:25;;;;;;;;;;;19.50;74.60;;;;;;5113760;28;19920;-66
2023/08/03 10:26:54;;;;;;;;;;;19.50;74.50;;;;;;5113298;28;19923;-65
2023/08/03 10:29:39;;;;;;;;;;;19.50;74.50;;;;;;5113723;28;19920;-65
2023/08/03 10:32:05;;;;;;;;;;;19.50;74.50;;;;;;5114510;28;20366;-65
2023/08/03 10:34:31;;;;;;;;;;;19.50;74.50;;;;;;5113608;28;19926;-65
2023/08/03 10:36:57;;;;;;;;;;;19.50;74.50;;;;;;5113106;28;19933;-65
2023/08/03 10:39:42;;;;;;;;;;;19.50;74.50;;;;;;5114295;28;20357;-66
2023/08/03 10:42:27;;;;;;;;;;;19.50;74.50;;;;;;5112744;28;19989;-66
2023/08/03 10:44:53;;;;;;;;;;;19.50;74.60;;;;;;5113068;28;19924;-65
2023/08/03 10:47:23;;;;;;;;;;;19.50;74.50;;;;;;5114270;28;20395;-65
2023/08/03 10:49:49;;;;;;;;;;;19.50;74.60;;;;;;5113308;28;19926;-65
2023/08/03 10:52:16;;;;;;;;;;;19.50;74.60;;;;;;5112846;28;19919;-65
2023/08/03 10:54:42;;;;;;;;;;;19.50;74.50;;;;;;5113186;28;20371;-65
2023/08/03 10:57:08;;;;;;;;;;;19.50;74.60;;;;;;5095716;28;20019;-66
2023/08/03 10:59:35;;;;;;;;;;;19.50;74.50;;;;;;5113050;28;19965;-65
2023/08/03 11:02:07;;;;;;;;;;;19.50;74.60;;;;;;5112637;28;19924;-65
2023/08/03 11:04:34;;;;;;;;;;;19.50;74.70;;;;;;5112546;28;19951;-65
2023/08/03 11:06:59;;;;;;;;;;;19.50;74.50;;;;;;5146781;27;20436;-65
2023/08/03 11:09:25;;;;;;;;;;;19.50;74.60;;;;;;5112592;28;20057;-65
2023/08/03 11:11:54;;;;;;;;;;;19.50;74.60;;;;;;5113909;28;19998;-65
2023/08/03 11:14:20;;;;;;;;;;;19.50;74.60;;;;;;5112502;28;19920;-65
2023/08/03 11:16:46;;;;;;;;;;;19.50;74.80;;;;;;5146508;27;19924;-65
2023/08/03 11:19:13;;;;;;;;;;;19.50;74.60;;;;;;5113589;28;19924;-66
2023/08/03 11:21:40;;;;;;;;;;;19.50;74.70;;;;;;5112276;28;19920;-65
2023/08/03 11:24:06;;;;;;;;;;;19.50;74.90;;;;;;5113585;28;20310;-66
2023/08/03 11:26:31;;;;;;;;;;;19.50;74.80;;;;;;5112952;28;19927;-65
2023/08/03 11:28:57;;;;;;;;;;;19.50;75.00;;;;;;5113309;28;19920;-66
2023/08/03 11:31:22;;;;;;;;;;;19.50;74.70;;;;;;5113452;28;19924;-65
2023/08/03 11:33:50;;;;;;;;;;;19.50;74.90;;;;;;5113273;28;19926;-65
2023/08/03 11:36:16;;;;;;;;;;;19.50;74.80;;;;;;5112281;28;19926;-65
2023/08/03 11:38:41;;;;;;;;;;;19.50;74.90;;;;;;5112366;28;19920;-65
2023/08/03 11:41:07;;;;;;;;;;;19.50;75.00;;;;;;5112195;28;20263;-65
2023/08/03 11:43:32;;;;;;;;;;;19.50;74.90;;;;;;5111436;28;20026;-65
2023/08/03 11:45:58;;;;;;;;;;;19.50;74.90;;;;;;5112179;28;19926;-65
2023/08/03 11:48:25;;;;;;;;;;;19.50;74.80;;;;;;5112119;28;19920;-65
2023/08/03 11:50:54;;;;;;;;;;;19.50;75.00;;;;;;5113082;28;19959;-65
2023/08/03 11:53:29;;;;;;;;;;;19.50;75.00;;;;;;5112803;28;19924;-65
2023/08/03 11:55:57;;;;;;;;;;;19.50;74.90;;;;;;5112075;28;19928;-66
2023/08/03 11:58:23;;;;;;;;;;;19.50;75.10;;;;;;5112992;28;20286;-65
2023/08/03 12:00:49;;;;;;;;;;;19.50;75.10;;;;;;5112011;28;19920;-65
2023/08/03 12:03:18;;;;;;;;;;;19.50;75.00;;;;;;5111591;28;19920;-65
2023/08/03 12:05:45;;;;;;;;;;;19.50;75.90;;;;;;5111945;28;19924;-65
2023/08/03 12:08:11;;;;;;;;;;;19.50;75.20;;;;;;5112035;28;19920;-65
2023/08/03 12:10:36;;;;;;;;;;;19.50;75.20;;;;;;5111904;28;19949;-65
2023/08/03 12:13:03;;;;;;;;;;;19.50;75.20;;;;;;5111485;28;20309;-65
2023/08/03 12:15:29;;;;;;;;;;;19.60;75.30;;;;;;5111903;28;19927;-65
2023/08/03 12:17:54;;;;;;;;;;;19.60;75.30;;;;;;5111391;28;19924;-65
2023/08/03 12:20:20;;;;;;;;;;;19.60;75.30;;;;;;5111378;28;19954;-65
2023/08/03 12:22:45;;;;;;;;;;;19.60;75.10;;;;;;5111833;28;19993;-65
2023/08/03 12:25:10;;;;;;;;;;;19.60;75.30;;;;;;5111405;28;20267;-65
2023/08/03 12:27:36;;;;;;;;;;;19.60;75.30;;;;;;5112730;28;20071;-65
2023/08/03 12:30:01;;;;;;;;;;;19.60;75.40;;;;;;5111319;28;19924;-65
2023/08/03 12:32:27;;;;;;;;;;;19.60;75.30;;;;;;5111408;28;19926;-65
2023/08/03 12:34:53;;;;;;;;;;;19.60;75.40;;;;;;5112542;28;19920;-65
2023/08/03 12:37:19;;;;;;;;;;;19.60;75.50;;;;;;5111457;28;19931;-65
2023/08/03 12:39:44;;;;;;;;;;;19.60;75.40;;;;;;5111584;28;20359;-65
2023/08/03 12:42:10;;;;;;;;;;;19.60;75.50;;;;;;5111521;28;19967;-65
2023/08/03 12:44:35;;;;;;;;;;;19.60;75.50;;;;;;5111205;28;20305;-66
2023/08/03 12:47:01;;;;;;;;;;;19.60;75.30;;;;;;5112612;28;19920;-65
2023/08/03 12:49:26;;;;;;;;;;;19.60;75.40;;;;;;5111453;28;19974;-65
2023/08/03 12:51:51;;;;;;;;;;;19.60;75.40;;;;;;5112526;28;19928;-65
2023/08/03 12:54:17;;;;;;;;;;;19.60;75.50;;;;;;5112583;28;19973;-66
2023/08/03 12:56:46;;;;;;;;;;;19.60;75.40;;;;;;5110962;28;19924;-66
2023/08/03 12:59:11;;;;;;;;;;;19.60;75.40;;;;;;5111468;28;19926;-65
2023/08/03 13:01:37;;;;;;;;;;;19.60;75.50;;;;;;5112284;28;20281;-65
2023/08/03 13:04:02;;;;;;;;;;;19.60;75.40;;;;;;5112948;28;19924;-65
2023/08/03 13:06:28;;;;;;;;;;;19.60;75.40;;;;;;5149167;27;20010;-71
2023/08/03 13:08:53;;;;;;;;;;;19.60;75.50;;;;;;5115291;28;20015;-65
2023/08/03 13:11:19;;;;;;;;;;;19.60;75.50;;;;;;5114818;28;20431;-67
2023/08/03 13:13:45;;;;;;;;;;;19.60;75.50;;;;;;5116144;28;20015;-73
2023/08/03 13:16:10;;;;;;;;;;;19.60;75.50;;;;;;5115994;28;19920;-68
2023/08/03 13:18:36;;;;;;;;;;;19.60;75.50;;;;;;5114335;28;20044;-67
2023/08/03 13:21:01;;;;;;;;;;;19.70;75.60;;;;;;5114621;28;19919;-67
2023/08/03 13:23:27;;;;;;;;;;;19.70;75.60;;;;;;5114655;28;19966;-67
2023/08/03 13:25:52;;;;;;;;;;;19.70;75.60;;;;;;5114893;28;20061;-68
2023/08/03 13:28:18;;;;;;;;;;;19.70;75.60;;;;;;5114612;28;19919;-67
2023/08/03 13:30:43;;;;;;;;;;;19.70;75.60;;;;;;5114794;28;19920;-67
2023/08/03 13:33:09;;;;;;;;;;;19.70;75.60;;;;;;5114487;28;19943;-67
2023/08/03 13:35:34;;;;;;;;;;;19.70;75.70;;;;;;5114461;28;19920;-67
2023/08/03 13:37:59;;;;;;;;;;;19.70;75.60;;;;;;5115534;28;19977;-67
2023/08/03 13:40:25;;;;;;;;;;;19.70;75.60;;;;;;5115876;28;19930;-67
2023/08/03 13:42:51;;;;;;;;;;;19.70;75.60;;;;;;5114518;28;19920;-67
2023/08/03 13:45:16;;;;;;;;;;;19.70;75.60;;;;;;5114258;28;19927;-67
2023/08/03 13:47:42;;;;;;;;;;;19.70;75.60;;;;;;5115454;28;19924;-67
2023/08/03 13:50:08;;;;;;;;;;;19.70;75.60;;;;;;5114201;28;19962;-73
2023/08/03 13:52:33;;;;;;;;;;;19.70;75.70;;;;;;5114333;28;19959;-67
2023/08/03 13:55:00;;;;;;;;;;;19.70;75.70;;;;;;5115595;28;19920;-67
2023/08/03 13:57:25;;;;;;;;;;;19.70;75.70;;;;;;5114063;28;19931;-67
2023/08/03 13:59:51;;;;;;;;;;;19.70;75.70;;;;;;5114492;28;19920;-67
2023/08/03 14:02:16;;;;;;;;;;;19.70;75.70;;;;;;5097011;28;20358;-67
2023/08/03 14:04:42;;;;;;;;;;;19.70;75.80;;;;;;5115207;28;19931;-67
2023/08/03 14:07:07;;;;;;;;;;;19.70;75.80;;;;;;5114091;28;19919;-67
2023/08/03 14:09:33;;;;;;;;;;;19.70;75.70;;;;;;5114015;28;19920;-67
2023/08/03 14:11:58;;;;;;;;;;;19.70;75.70;;;;;;5113705;28;19927;-67
2023/08/03 14:14:24;;;;;;;;;;;19.70;75.70;;;;;;5113668;28;20326;-67
2023/08/03 14:16:50;;;;;;;;;;;19.70;75.70;;;;;;5111456;28;20267;-67